createdAt,value
2022-09-22T00:01:55.483Z,4.10
2022-09-22T00:04:24.830Z,3.93
2022-09-22T00:06:53.449Z,2.50
2022-09-22T00:09:22.544Z,2.77
2022-09-22T00:11:58.624Z,2.80
2022-09-22T00:14:36.322Z,2.70
2022-09-22T00:17:05.962Z,3.10
2022-09-22T00:19:40.810Z,3.10
2022-09-22T00:22:08.169Z,3.20
2022-09-22T00:24:37.492Z,2.57
2022-09-22T00:27:06.984Z,3.00
2022-09-22T00:29:37.098Z,3.00
2022-09-22T00:32:09.746Z,2.80
2022-09-22T00:34:41.626Z,3.33
2022-09-22T00:37:14.018Z,3.70
2022-09-22T00:39:50.622Z,2.23
2022-09-22T00:42:31.604Z,3.10
2022-09-22T00:45:00.765Z,2.10
2022-09-22T00:50:22.778Z,2.60
2022-09-22T00:52:58.994Z,2.40
2022-09-22T00:55:49.996Z,3.07
2022-09-22T00:58:31.717Z,2.03
2022-09-22T01:01:01.139Z,3.23
2022-09-22T01:03:34.403Z,2.13
2022-09-22T01:06:08.986Z,2.10
2022-09-22T01:08:47.161Z,2.30
2022-09-22T01:11:28.456Z,2.60
2022-09-22T01:13:59.742Z,3.07
2022-09-22T01:16:46.402Z,2.30
2022-09-22T01:19:36.215Z,3.00
2022-09-22T01:22:23.646Z,2.10
2022-09-22T01:25:18.202Z,2.43
2022-09-22T01:28:07.115Z,2.00
2022-09-22T01:30:41.412Z,2.17
2022-09-22T01:33:20.179Z,1.73
2022-09-22T01:35:48.959Z,2.33
2022-09-22T01:38:30.523Z,1.93
2022-09-22T01:41:19.691Z,2.00
2022-09-22T01:44:02.334Z,2.73
2022-09-22T01:46:37.706Z,2.23
2022-09-22T01:49:12.299Z,2.00
2022-09-22T01:51:51.578Z,1.83
2022-09-22T01:54:35.192Z,1.70
2022-09-22T01:57:20.514Z,2.03
2022-09-22T01:59:55.461Z,1.77
2022-09-22T02:02:29.846Z,3.10
2022-09-22T02:05:02.681Z,2.37
2022-09-22T02:07:37.798Z,2.03
2022-09-22T02:10:08.083Z,1.70
2022-09-22T02:12:38.336Z,1.73
2022-09-22T02:15:35.269Z,1.90
2022-09-22T02:18:09.893Z,1.70
2022-09-22T02:20:43.063Z,1.70
2022-09-22T02:23:11.579Z,1.80
2022-09-22T02:25:43.436Z,2.00
2022-09-22T02:28:15.997Z,1.87
2022-09-22T02:31:10.925Z,1.80
2022-09-22T02:36:45.694Z,1.70
2022-09-22T02:39:24.871Z,1.87
2022-09-22T02:41:58.068Z,1.73
2022-09-22T02:44:33.481Z,1.77
2022-09-22T02:47:06.388Z,1.57
2022-09-22T02:49:34.875Z,1.93
2022-09-22T02:52:05.483Z,1.80
2022-09-22T02:54:35.491Z,1.83
2022-09-22T02:57:08.879Z,1.57
2022-09-22T02:59:46.245Z,1.60
2022-09-22T03:02:17.070Z,1.97
2022-09-22T03:04:44.289Z,1.80
2022-09-22T03:07:14.301Z,1.83
2022-09-22T03:09:45.077Z,1.70
2022-09-22T03:12:16.197Z,2.30
2022-09-22T03:14:44.541Z,1.87
2022-09-22T03:17:14.566Z,1.93
2022-09-22T03:19:45.419Z,1.67
2022-09-22T03:22:17.815Z,2.07
2022-09-22T03:24:49.563Z,2.30
2022-09-22T03:27:21.121Z,1.73
2022-09-22T03:29:53.316Z,1.80
2022-09-22T03:32:23.566Z,1.93
2022-09-22T03:34:52.001Z,1.87
2022-09-22T03:37:23.805Z,1.87
2022-09-22T03:42:34.028Z,2.10
2022-09-22T03:45:07.449Z,1.50
2022-09-22T03:47:40.286Z,1.67
2022-09-22T03:50:08.050Z,2.00
2022-09-22T03:52:38.715Z,1.83
2022-09-22T03:55:07.725Z,1.33
2022-09-22T03:57:38.222Z,2.10
2022-09-22T04:00:09.409Z,1.90
2022-09-22T04:02:55.286Z,1.87
2022-09-22T04:05:24.791Z,1.97
2022-09-22T04:07:56.905Z,2.10
2022-09-22T04:10:27.447Z,2.37
2022-09-22T04:13:01.661Z,1.57
2022-09-22T04:15:30.877Z,1.53
2022-09-22T04:18:00.513Z,2.50
2022-09-22T04:20:30.664Z,2.17
2022-09-22T04:22:59.121Z,2.83
2022-09-22T04:25:30.148Z,2.37
2022-09-22T04:28:04.861Z,1.87
2022-09-22T04:30:36.670Z,1.50
2022-09-22T04:33:08.763Z,2.33
2022-09-22T04:35:41.205Z,6.27
2022-09-22T04:38:12.529Z,2.53
2022-09-22T04:40:44.252Z,1.80
2022-09-22T04:43:16.600Z,2.73
2022-09-22T04:45:57.183Z,2.83
2022-09-22T04:48:28.142Z,2.17
2022-09-22T04:50:56.933Z,1.47
2022-09-22T04:53:25.083Z,2.53
2022-09-22T04:55:58.994Z,1.20
2022-09-22T04:58:29.641Z,1.80
2022-09-22T05:01:03.898Z,1.43
2022-09-22T05:03:42.162Z,1.40
2022-09-22T05:06:13.829Z,2.00
2022-09-22T05:08:44.029Z,1.50
2022-09-22T05:11:16.506Z,2.60
2022-09-22T05:13:49.482Z,3.23
2022-09-22T05:16:20.820Z,1.67
2022-09-22T05:18:53.534Z,3.00
2022-09-22T05:21:24.321Z,1.30
2022-09-22T05:24:07.752Z,2.90
2022-09-22T05:26:43.495Z,2.00
2022-09-22T05:29:15.134Z,3.83
2022-09-22T05:31:47.497Z,3.73
2022-09-22T05:34:21.255Z,2.03
2022-09-22T05:36:50.998Z,2.30
2022-09-22T05:39:24.231Z,5.73
2022-09-22T05:41:53.450Z,1.90
2022-09-22T05:47:14.846Z,56.33
2022-09-22T05:49:44.937Z,41.73
2022-09-22T05:52:16.751Z,52.23
2022-09-22T05:54:50.269Z,37.50
2022-09-22T05:57:25.791Z,25.03
2022-09-22T05:59:53.206Z,27.17
2022-09-22T06:02:26.213Z,19.30
2022-09-22T06:05:02.603Z,28.07
2022-09-22T06:07:31.362Z,22.53
2022-09-22T06:09:58.983Z,21.73
2022-09-22T06:12:30.851Z,18.50
2022-09-22T06:15:02.195Z,21.07
2022-09-22T06:17:34.039Z,15.27
2022-09-22T06:20:14.107Z,14.60
2022-09-22T06:22:41.488Z,16.00
2022-09-22T06:25:12.478Z,12.87
2022-09-22T06:27:46.659Z,12.50
2022-09-22T06:30:18.254Z,9.30
2022-09-22T06:32:57.291Z,10.37
2022-09-22T06:35:31.307Z,10.93
2022-09-22T06:38:01.437Z,10.60
2022-09-22T06:40:32.543Z,9.93
2022-09-22T06:43:14.064Z,8.97
2022-09-22T06:45:44.187Z,4.70
2022-09-22T06:48:16.233Z,7.53
2022-09-22T06:50:51.740Z,6.30
2022-09-22T06:53:25.894Z,5.90
2022-09-22T06:55:57.645Z,5.97
2022-09-22T06:58:38.609Z,5.30
2022-09-22T07:01:20.557Z,6.73
2022-09-22T07:03:50.736Z,9.10
2022-09-22T07:06:20.477Z,5.13
2022-09-22T07:08:53.857Z,6.37
2022-09-22T07:11:26.507Z,5.73
2022-09-22T07:13:57.427Z,4.83
2022-09-22T07:16:31.057Z,4.27
2022-09-22T07:19:03.637Z,4.90
2022-09-22T07:21:40.324Z,4.47
2022-09-22T07:24:12.863Z,3.67
2022-09-22T07:26:44.338Z,4.23
2022-09-22T07:29:15.662Z,3.70
2022-09-22T07:31:46.319Z,5.10
2022-09-22T07:34:18.814Z,5.80
2022-09-22T07:36:52.467Z,2.97
2022-09-22T07:39:25.025Z,3.67
2022-09-22T07:41:54.649Z,3.60
2022-09-22T07:44:44.483Z,5.03
2022-09-22T07:47:15.926Z,6.07
2022-09-22T07:49:45.565Z,4.00
2022-09-22T07:52:16.228Z,4.53
2022-09-22T07:54:50.691Z,5.03
2022-09-22T07:57:23.662Z,4.50
2022-09-22T07:59:52.554Z,2.67
2022-09-22T08:02:28.631Z,3.63
2022-09-22T08:05:08.253Z,3.67
2022-09-22T08:07:38.505Z,3.17
2022-09-22T08:10:15.667Z,3.20
2022-09-22T08:12:46.695Z,3.27
2022-09-22T08:15:19.407Z,4.07
2022-09-22T08:17:54.588Z,2.93
2022-09-22T08:20:25.700Z,3.10
2022-09-22T08:23:00.605Z,2.70
2022-09-22T08:25:36.004Z,2.37
2022-09-22T08:28:07.529Z,2.93
2022-09-22T08:30:42.332Z,3.67
2022-09-22T08:33:14.388Z,3.43
2022-09-22T08:35:59.275Z,2.93
2022-09-22T08:38:32.463Z,4.03
2022-09-22T08:41:19.708Z,3.03
2022-09-22T08:43:55.624Z,2.50
2022-09-22T08:46:40.578Z,2.93
2022-09-22T08:49:36.584Z,3.60
2022-09-22T08:52:10.125Z,2.83
2022-09-22T08:54:41.850Z,2.43
2022-09-22T08:57:11.186Z,3.53
2022-09-22T09:00:01.083Z,2.33
2022-09-22T09:02:48.848Z,1.83
2022-09-22T09:05:36.026Z,2.13
2022-09-22T09:08:06.598Z,1.90
2022-09-22T09:10:46.509Z,3.03
2022-09-22T09:13:15.176Z,3.00
2022-09-22T09:15:50.754Z,2.00
2022-09-22T09:18:42.423Z,1.97
2022-09-22T09:21:36.828Z,2.00
2022-09-22T09:27:22.369Z,2.63
2022-09-22T09:30:10.984Z,3.43
2022-09-22T09:33:08.137Z,2.80
2022-09-22T09:35:49.300Z,1.57
2022-09-22T09:38:20.694Z,2.80
2022-09-22T09:40:57.265Z,2.17
2022-09-22T09:43:32.141Z,1.90
2022-09-22T09:46:22.386Z,2.07
2022-09-22T09:49:05.450Z,1.47
2022-09-22T09:51:41.027Z,1.83
2022-09-22T09:54:16.906Z,2.70
2022-09-22T09:57:05.818Z,2.70
2022-09-22T10:00:01.369Z,2.93
2022-09-22T10:02:31.916Z,1.40
2022-09-22T10:05:10.636Z,2.00
2022-09-22T10:07:47.565Z,1.63
2022-09-22T10:10:36.100Z,1.53
2022-09-22T10:13:16.029Z,2.37
2022-09-22T10:16:13.114Z,1.57
2022-09-22T10:18:43.447Z,3.90
2022-09-22T10:21:25.499Z,1.67
2022-09-22T10:23:56.191Z,2.97
2022-09-22T10:26:33.704Z,1.30
2022-09-22T10:29:13.220Z,2.13
2022-09-22T10:31:44.724Z,3.10
2022-09-22T10:34:34.378Z,2.50
2022-09-22T10:37:05.306Z,1.63
2022-09-22T10:39:38.122Z,2.03
2022-09-22T10:42:10.847Z,1.60
2022-09-22T10:44:42.811Z,3.30
2022-09-22T10:47:31.803Z,1.33
2022-09-22T10:50:17.946Z,1.87
2022-09-22T10:52:59.176Z,1.10
2022-09-22T10:55:38.429Z,3.37
2022-09-22T10:58:24.391Z,1.40
2022-09-22T11:00:57.746Z,3.13
2022-09-22T11:03:31.421Z,2.03
2022-09-22T11:06:42.349Z,2.63
2022-09-22T11:09:55.779Z,1.07
2022-09-22T11:12:41.894Z,1.17
2022-09-22T11:18:16.243Z,2.37
2022-09-22T11:20:53.594Z,1.53
2022-09-22T11:23:35.500Z,1.20
2022-09-22T11:26:38.856Z,1.33
2022-09-22T11:29:24.559Z,0.80
2022-09-22T11:31:58.085Z,1.00
2022-09-22T11:34:45.818Z,1.57
2022-09-22T11:37:35.241Z,0.90
2022-09-22T11:40:32.748Z,1.37
2022-09-22T11:43:18.876Z,1.00
2022-09-22T11:45:54.364Z,1.23
2022-09-22T11:48:43.069Z,2.23
2022-09-22T11:51:29.752Z,2.33
2022-09-22T11:54:15.618Z,1.00
2022-09-22T11:56:48.488Z,1.83
2022-09-22T11:59:35.521Z,1.40
2022-09-22T12:02:35.543Z,1.00
2022-09-22T12:05:11.579Z,0.83
2022-09-22T12:07:46.753Z,1.70
2022-09-22T12:10:32.583Z,2.03
2022-09-22T12:13:03.896Z,3.13
2022-09-22T12:15:47.996Z,2.83
2022-09-22T12:18:15.597Z,1.00
2022-09-22T12:21:21.658Z,1.47
2022-09-22T12:23:52.313Z,2.27
2022-09-22T12:26:29.247Z,1.47
2022-09-22T12:28:59.066Z,1.63
2022-09-22T12:31:43.146Z,2.10
2022-09-22T12:34:20.818Z,1.40
2022-09-22T12:36:49.217Z,2.00
2022-09-22T12:39:21.971Z,2.20
2022-09-22T12:42:09.976Z,1.90
2022-09-22T12:47:36.996Z,1.73
2022-09-22T12:53:32.138Z,1.20
2022-09-22T12:56:01.859Z,1.17
2022-09-22T12:58:35.130Z,3.47
2022-09-22T13:01:29.748Z,0.70
2022-09-22T13:04:27.951Z,0.80
2022-09-22T13:07:00.075Z,1.73
2022-09-22T13:09:30.492Z,0.87
2022-09-22T13:12:20.077Z,2.60
2022-09-22T13:15:08.199Z,2.33
2022-09-22T13:17:43.740Z,2.63
2022-09-22T13:20:16.623Z,1.87
2022-09-22T13:22:47.649Z,1.67
2022-09-22T13:25:34.694Z,1.10
2022-09-22T13:28:04.534Z,1.70
2022-09-22T13:30:34.498Z,2.40
2022-09-22T13:33:04.475Z,1.03
2022-09-22T13:35:37.121Z,2.70
2022-09-22T13:38:11.489Z,1.33
2022-09-22T13:40:52.036Z,1.80
2022-09-22T13:43:34.695Z,2.93
2022-09-22T13:46:05.608Z,1.03
2022-09-22T13:48:42.185Z,1.30
2022-09-22T13:51:17.894Z,2.83
2022-09-22T13:53:53.276Z,2.03
2022-09-22T13:56:25.803Z,3.37
2022-09-22T13:58:59.494Z,0.83
2022-09-22T14:01:32.378Z,1.40
2022-09-22T14:04:02.350Z,2.80
2022-09-22T14:06:35.483Z,1.80
2022-09-22T14:09:10.558Z,0.83
2022-09-22T14:11:42.837Z,2.07
2022-09-22T14:14:29.442Z,2.90
2022-09-22T14:17:22.751Z,0.57
2022-09-22T14:20:08.650Z,0.90
2022-09-22T14:22:46.305Z,1.67
2022-09-22T14:25:31.369Z,2.60
2022-09-22T14:28:02.634Z,1.90
2022-09-22T14:30:43.315Z,3.43
2022-09-22T14:36:05.004Z,2.10
2022-09-22T14:38:56.470Z,1.10
2022-09-22T14:41:30.002Z,1.70
2022-09-22T14:43:59.713Z,1.50
2022-09-22T14:46:59.243Z,3.37
2022-09-22T14:49:48.354Z,1.03
2022-09-22T14:52:34.260Z,0.87
2022-09-22T14:55:25.828Z,2.00
2022-09-22T14:57:58.237Z,0.73
2022-09-22T15:00:47.683Z,4.30
2022-09-22T15:03:29.148Z,2.20
2022-09-22T15:06:18.795Z,4.03
2022-09-22T15:08:56.291Z,5.33
2022-09-22T15:11:49.363Z,3.63
2022-09-22T15:14:51.527Z,3.40
2022-09-22T15:18:05.246Z,3.03
2022-09-22T15:20:35.059Z,8.00
2022-09-22T15:23:06.750Z,4.53
2022-09-22T15:25:52.219Z,2.70
2022-09-22T15:28:27.982Z,4.70
2022-09-22T15:30:57.617Z,2.67
2022-09-22T15:33:29.787Z,2.00
2022-09-22T15:36:03.806Z,2.67
2022-09-22T15:38:37.446Z,3.10
2022-09-22T15:41:06.324Z,0.87
2022-09-22T15:43:45.255Z,1.53
2022-09-22T15:46:45.110Z,3.17
2022-09-22T15:49:19.482Z,4.23
2022-09-22T15:51:52.807Z,2.10
2022-09-22T15:54:27.199Z,0.93
2022-09-22T15:56:56.705Z,1.00
2022-09-22T15:59:31.117Z,1.53
2022-09-22T16:01:59.770Z,2.23
2022-09-22T16:04:35.076Z,1.30
2022-09-22T16:07:07.250Z,2.97
2022-09-22T16:09:35.520Z,1.23
2022-09-22T16:12:09.201Z,1.00
2022-09-22T16:14:44.183Z,2.87
2022-09-22T16:17:35.240Z,1.20
2022-09-22T16:20:07.186Z,1.37
2022-09-22T16:22:39.325Z,1.53
2022-09-22T16:25:08.705Z,1.00
2022-09-22T16:27:38.617Z,2.43
2022-09-22T16:30:12.605Z,2.20
2022-09-22T16:32:45.999Z,3.60
2022-09-22T16:35:16.629Z,3.03
2022-09-22T16:37:46.247Z,3.57
2022-09-22T16:40:20.437Z,5.80
2022-09-22T16:42:52.376Z,4.63
2022-09-22T16:45:46.112Z,4.70
2022-09-22T16:48:17.848Z,6.33
2022-09-22T16:50:49.539Z,10.87
2022-09-22T16:53:21.194Z,5.50
2022-09-22T16:55:53.146Z,6.77
2022-09-22T16:58:23.240Z,6.53
2022-09-22T17:00:54.038Z,7.67
2022-09-22T17:03:26.086Z,5.93
2022-09-22T17:06:11.289Z,6.13
2022-09-22T17:08:53.112Z,5.53
2022-09-22T17:11:24.529Z,10.47
2022-09-22T17:13:56.042Z,6.97
2022-09-22T17:16:34.780Z,10.10
2022-09-22T17:21:51.494Z,16.60
2022-09-22T17:24:22.498Z,11.23
2022-09-22T17:26:57.246Z,7.13
2022-09-22T17:29:27.444Z,4.93
2022-09-22T17:32:01.377Z,6.80
2022-09-22T17:34:31.605Z,8.43
2022-09-22T17:37:04.734Z,5.07
2022-09-22T17:39:35.331Z,4.40
2022-09-22T17:42:03.769Z,2.47
2022-09-22T17:44:33.766Z,5.10
2022-09-22T17:47:21.273Z,2.50
2022-09-22T17:50:08.414Z,1.87
2022-09-22T17:52:50.095Z,6.20
2022-09-22T17:55:27.736Z,5.23
2022-09-22T17:57:57.342Z,5.23
2022-09-22T18:00:29.263Z,4.57
2022-09-22T18:03:00.293Z,2.27
2022-09-22T18:05:32.148Z,4.53
2022-09-22T18:08:03.606Z,3.17
2022-09-22T18:10:37.046Z,5.53
2022-09-22T18:13:04.320Z,5.13
2022-09-22T18:15:34.526Z,9.63
2022-09-22T18:20:56.494Z,6.20
2022-09-22T18:23:37.811Z,3.73
2022-09-22T18:26:10.232Z,11.93
2022-09-22T18:28:43.205Z,11.63
2022-09-22T18:31:12.037Z,17.03
2022-09-22T18:33:43.847Z,18.37
2022-09-22T18:36:25.959Z,10.23
2022-09-22T18:38:58.963Z,16.77
2022-09-22T18:41:33.342Z,14.13
2022-09-22T18:44:07.220Z,15.20
2022-09-22T18:46:37.433Z,18.33
2022-09-22T18:49:10.398Z,9.73
2022-09-22T18:51:44.637Z,17.10
2022-09-22T18:54:16.790Z,10.47
2022-09-22T18:56:48.684Z,12.77
2022-09-22T18:59:20.602Z,7.83
2022-09-22T19:01:53.741Z,10.77
2022-09-22T19:04:29.730Z,11.20
2022-09-22T19:07:19.870Z,10.63
2022-09-22T19:09:53.160Z,9.13
2022-09-22T19:12:24.907Z,5.80
2022-09-22T19:14:59.723Z,5.83
2022-09-22T19:17:31.965Z,4.53
2022-09-22T19:20:04.395Z,6.67
2022-09-22T19:22:36.824Z,6.77
2022-09-22T19:25:13.900Z,10.40
2022-09-22T19:27:48.573Z,5.93
2022-09-22T19:30:24.057Z,4.23
2022-09-22T19:32:58.674Z,4.83
2022-09-22T19:35:28.458Z,6.43
2022-09-22T19:37:55.918Z,8.50
2022-09-22T19:40:27.421Z,7.13
2022-09-22T19:42:57.806Z,5.50
2022-09-22T19:48:34.725Z,2.83
2022-09-22T19:51:09.474Z,3.60
2022-09-22T19:53:39.641Z,4.87
2022-09-22T19:56:11.096Z,6.57
2022-09-22T19:58:43.083Z,2.13
2022-09-22T20:01:26.830Z,2.43
2022-09-22T20:03:59.103Z,4.10
2022-09-22T20:06:30.466Z,4.77
2022-09-22T20:09:06.518Z,5.03
2022-09-22T20:11:40.529Z,4.77
2022-09-22T20:14:27.635Z,2.00
2022-09-22T20:17:04.222Z,5.27
2022-09-22T20:19:35.866Z,4.27
2022-09-22T20:22:24.993Z,3.27
2022-09-22T20:24:57.859Z,2.97
2022-09-22T20:27:33.348Z,3.43
2022-09-22T20:30:04.385Z,1.93
2022-09-22T20:32:34.029Z,2.53
2022-09-22T20:35:03.208Z,2.50
2022-09-22T20:37:32.453Z,4.03
2022-09-22T20:40:02.469Z,2.77
2022-09-22T20:42:33.886Z,2.70
2022-09-22T20:47:45.953Z,2.20
2022-09-22T20:50:14.994Z,4.00
2022-09-22T20:52:45.956Z,5.50
2022-09-22T20:55:16.445Z,1.60
2022-09-22T20:57:50.864Z,4.33
2022-09-22T21:00:20.364Z,3.87
2022-09-22T21:02:54.711Z,3.47
2022-09-22T21:05:24.420Z,3.07
2022-09-22T21:08:15.351Z,3.73
2022-09-22T21:10:45.296Z,2.73
2022-09-22T21:13:17.113Z,4.17
2022-09-22T21:15:48.138Z,4.73
2022-09-22T21:18:18.062Z,3.50
2022-09-22T21:20:48.733Z,6.20
2022-09-22T21:23:18.332Z,6.13
2022-09-22T21:25:57.639Z,9.07
2022-09-22T21:28:28.715Z,3.40
2022-09-22T21:33:47.731Z,6.03
2022-09-22T21:36:19.298Z,2.67
2022-09-22T21:38:53.145Z,4.93
2022-09-22T21:41:27.326Z,6.23
2022-09-22T21:43:57.086Z,6.47
2022-09-22T21:46:32.493Z,4.10
2022-09-22T21:49:02.462Z,4.13
2022-09-22T21:51:46.728Z,2.83
2022-09-22T21:54:20.265Z,4.27
2022-09-22T21:56:53.066Z,4.90
2022-09-22T21:59:24.783Z,2.73
2022-09-22T22:01:56.674Z,2.23
2022-09-22T22:04:30.147Z,1.70
2022-09-22T22:07:02.182Z,1.93
2022-09-22T22:09:39.676Z,3.67
2022-09-22T22:12:12.247Z,2.13
2022-09-22T22:14:46.259Z,1.73
2022-09-22T22:17:19.021Z,2.93
2022-09-22T22:19:51.313Z,2.37
2022-09-22T22:22:21.391Z,2.33
2022-09-22T22:24:54.252Z,3.23
2022-09-22T22:27:28.083Z,2.90
2022-09-22T22:29:58.587Z,2.87
2022-09-22T22:32:28.917Z,3.43
2022-09-22T22:34:58.495Z,1.40
2022-09-22T22:37:30.302Z,3.00
2022-09-22T22:40:03.735Z,4.83
2022-09-22T22:42:35.503Z,1.20
2022-09-22T22:45:05.271Z,2.10
2022-09-22T22:47:36.271Z,3.57
2022-09-22T22:50:06.362Z,1.97
2022-09-22T22:52:42.075Z,1.97
2022-09-22T22:55:13.189Z,2.10
2022-09-22T22:57:42.079Z,1.87
2022-09-22T23:00:14.725Z,1.80
2022-09-22T23:02:46.266Z,2.50
2022-09-22T23:05:17.506Z,1.97
2022-09-22T23:07:46.068Z,2.20
2022-09-22T23:10:20.505Z,1.73
2022-09-22T23:15:30.378Z,1.80
2022-09-22T23:18:03.061Z,1.30
2022-09-22T23:20:33.952Z,2.67
2022-09-22T23:23:15.198Z,2.13
2022-09-22T23:25:46.034Z,1.23
2022-09-22T23:28:18.343Z,1.30
2022-09-22T23:30:48.101Z,1.53
2022-09-22T23:33:19.060Z,1.27
2022-09-22T23:36:00.127Z,2.40
2022-09-22T23:38:30.244Z,1.87
2022-09-22T23:43:49.750Z,2.20
2022-09-22T23:46:25.904Z,1.33
2022-09-22T23:48:58.155Z,2.50
2022-09-22T23:51:35.857Z,1.53
2022-09-22T23:54:09.647Z,1.97
2022-09-22T23:56:38.346Z,2.20
2022-09-22T23:59:10.711Z,2.70
